Time;durP1;ratioP1;P1;durP2;ratioP2;P2;SDS_P1;SDS_P2;PMS_P1;PMS_P2;Temp;Humidity;BMP_temperature;BMP_pressure;BME280_temperature;BME280_humidity;BME280_pressure;Samples;Min_cycle;Max_cycle;Signal;HPM_P1;HPM_P2
2023/08/12 00:00:22;;;;;;;4.95;3.65;;;;;;;17.80;71.26;99846.06;6287892;22;20005;-89
2023/08/12 00:02:47;;;;;;;7.75;4.50;;;;;;;17.56;72.00;99817.16;6263736;22;20023;-89
2023/08/12 00:05:16;;;;;;;5.18;3.83;;;;;;;17.64;71.95;99828.44;6265216;22;20414;-87
2023/08/12 00:07:44;;;;;;;5.57;4.30;;;;;;;17.58;71.89;99822.31;6263411;22;20002;-88
2023/08/12 00:10:15;;;;;;;7.45;4.22;;;;;;;17.66;72.71;99846.09;6264639;22;20101;-88
2023/08/12 00:12:47;;;;;;;9.52;4.90;;;;;;;17.58;72.85;99830.47;6265651;22;19995;-88
2023/08/12 00:15:18;;;;;;;9.25;4.60;;;;;;;17.56;72.52;99832.69;6265932;22;20059;-88
2023/08/12 00:17:46;;;;;;;10.65;4.95;;;;;;;17.51;72.80;99822.69;6265262;22;19999;-88
2023/08/12 00:20:12;;;;;;;7.38;5.13;;;;;;;17.52;72.94;99820.78;6263569;22;20433;-88
2023/08/12 00:22:38;;;;;;;8.50;4.47;;;;;;;17.48;73.25;99820.59;6262394;22;20007;-88
2023/08/12 00:25:07;;;;;;;11.32;5.25;;;;;;;17.46;73.05;99822.81;6264765;22;19999;-88
2023/08/12 00:27:32;;;;;;;9.57;4.68;;;;;;;17.38;73.37;99820.78;6264671;22;20078;-87
2023/08/12 00:30:04;;;;;;;11.98;4.78;;;;;;;17.41;72.85;99822.91;6265697;22;20036;-88
2023/08/12 00:32:33;;;;;;;11.02;4.72;;;;;;;17.24;73.13;99807.16;6266812;22;20010;-88
2023/08/12 00:34:58;;;;;;;4.85;3.90;;;;;;;17.27;73.20;99814.75;6265814;22;20082;-88
2023/08/12 00:37:27;;;;;;;11.40;5.50;;;;;;;17.20;73.36;99821.69;6265711;22;20393;-88
2023/08/12 00:39:52;;;;;;;7.25;4.45;;;;;;;17.20;73.93;99818.97;6290740;22;20010;-88
2023/08/12 00:42:21;;;;;;;8.32;4.65;;;;;;;17.31;73.70;99834.81;6264330;22;20092;-88
2023/08/12 00:44:49;;;;;;;8.88;4.85;;;;;;;17.20;73.54;99822.47;6266686;22;20002;-88
2023/08/12 00:47:18;;;;;;;5.90;4.47;;;;;;;17.12;73.73;99812.28;6265913;22;19999;-88
2023/08/12 00:49:49;;;;;;;14.00;4.80;;;;;;;17.14;73.65;99813.63;6265558;22;20443;-88
2023/08/12 00:52:16;;;;;;;7.65;4.15;;;;;;;17.28;73.40;99834.59;6292541;22;20002;-88
2023/08/12 00:54:45;;;;;;;5.32;4.55;;;;;;;17.09;73.38;99808.28;6266560;22;20081;-88
2023/08/12 00:57:11;;;;;;;6.97;4.53;;;;;;;17.07;73.37;99799.59;6266543;22;20413;-88
2023/08/12 00:59:40;;;;;;;7.70;4.57;;;;;;;17.17;73.50;99812.22;6291039;22;20005;-87
2023/08/12 01:02:05;;;;;;;6.50;4.35;;;;;;;17.37;73.79;99836.31;6264776;22;20055;-85
2023/08/12 01:04:31;;;;;;;7.35;4.80;;;;;;;17.24;73.24;99807.16;6265298;22;19999;-88
2023/08/12 01:07:01;;;;;;;10.35;4.65;;;;;;;17.36;73.25;99812.91;6266699;22;20019;-87
2023/08/12 01:09:27;;;;;;;7.82;4.97;;;;;;;17.40;72.73;99813.13;6290521;22;20021;-89
2023/08/12 01:12:13;;;;;;;10.82;4.82;;;;;;;17.29;72.97;99795.41;6265737;22;20002;-87
2023/08/12 01:14:46;;;;;;;7.45;4.38;;;;;;;17.56;73.01;99829.97;6317035;22;19999;-88
2023/08/12 01:17:12;;;;;;;4.93;4.43;;;;;;;17.50;72.49;99807.47;6266292;22;20005;-86
2023/08/12 01:19:38;;;;;;;6.95;4.00;;;;;;;17.67;71.53;99812.28;6266297;22;20022;-88
2023/08/12 01:22:05;;;;;;;7.43;4.03;;;;;;;17.66;72.68;99818.03;6290383;22;20010;-88
2023/08/12 01:24:41;;;;;;;8.80;4.10;;;;;;;17.53;72.33;99803.34;6263658;22;20029;-88
2023/08/12 01:27:13;;;;;;;5.13;4.13;;;;;;;17.50;72.34;99802.03;6293693;22;20002;-88
2023/08/12 01:29:50;;;;;;;8.00;4.50;;;;;;;17.54;72.63;99803.03;6266307;22;20002;-87
2023/08/12 01:32:34;;;;;;;7.78;4.50;;;;;;;17.65;72.88;99819.97;6267795;22;20002;-88
2023/08/12 01:35:08;;;;;;;8.57;3.88;;;;;;;17.42;73.07;99788.34;6289608;22;20002;-88
2023/08/12 01:37:36;;;;;;;5.65;4.10;;;;;;;17.44;72.84;99797.00;6290636;22;20006;-88
2023/08/12 01:40:05;;;;;;;6.93;3.60;;;;;;;17.29;72.59;99787.22;6265652;22;20010;-88
2023/08/12 01:42:34;;;;;;;4.97;4.05;;;;;;;17.34;72.53;99814.34;6265478;22;20007;-87
2023/08/12 01:45:20;;;;;;;7.03;4.00;;;;;;;17.22;72.47;99808.59;6266047;22;20003;-88
2023/08/12 01:47:46;;;;;;;4.90;4.00;;;;;;;17.12;73.36;99809.56;6267329;22;19995;-88
2023/08/12 01:50:15;;;;;;;8.05;4.20;;;;;;;17.05;73.70;99799.09;6265463;22;20010;-87
2023/08/12 01:52:41;;;;;;;4.03;3.60;;;;;;;17.03;74.04;99825.00;6264519;22;19998;-88
2023/08/12 01:55:09;;;;;;;6.00;3.95;;;;;;;17.04;74.15;99829.34;6264603;22;19990;-87
2023/08/12 01:57:34;;;;;;;4.88;4.00;;;;;;;17.02;74.51;99828.84;6264917;22;20005;-87
2023/08/12 02:00:01;;;;;;;5.97;4.00;;;;;;;16.91;73.63;99811.88;6263973;22;19995;-88
2023/08/12 02:02:27;;;;;;;6.35;3.88;;;;;;;16.92;73.03;99810.78;6265690;22;20407;-87
2023/08/12 02:04:53;;;;;;;5.13;3.50;;;;;;;17.13;72.54;99852.81;6263843;22;20056;-88
2023/08/12 02:07:21;;;;;;;6.88;3.63;;;;;;;17.07;72.55;99837.69;6264813;22;20003;-88
2023/08/12 02:09:50;;;;;;;5.80;3.10;;;;;;;17.08;71.34;99830.34;6272693;22;20003;-96
2023/08/12 02:12:16;;;;;;;3.67;3.03;;;;;;;17.26;70.76;99855.88;6273157;22;19995;-96
2023/08/12 02:14:44;;;;;;;5.47;3.33;;;;;;;17.08;71.43;99833.88;6292745;22;20029;-96
2023/08/12 02:17:12;;;;;;;5.43;3.13;;;;;;;17.05;71.32;99837.19;6293109;22;20034;-96
2023/08/12 02:19:40;;;;;;;7.47;3.13;;;;;;;17.13;72.29;99846.56;6268347;22;20099;-96
2023/08/12 02:22:06;;;;;;;7.22;3.30;;;;;;;17.05;72.21;99837.19;6269375;22;20016;-95
2023/08/12 02:24:37;;;;;;;5.57;3.45;;;;;;;17.01;72.59;99833.44;6267516;22;20007;-96
2023/08/12 02:27:03;;;;;;;4.25;3.40;;;;;;;17.07;72.27;99858.66;6294148;22;20003;-96
2023/08/12 02:29:28;;;;;;;4.18;2.90;;;;;;;17.00;72.61;99858.25;6289705;22;20022;-96
2023/08/12 02:31:54;;;;;;;7.30;3.00;;;;;;;17.15;71.85;99871.56;6266629;22;19991;-96
2023/08/12 02:34:20;;;;;;;4.38;2.78;;;;;;;16.99;72.01;99862.06;6267292;22;20010;-96
2023/08/12 02:36:51;;;;;;;3.72;3.00;;;;;;;16.84;72.59;99858.50;6292034;22;20042;-96
2023/08/12 02:39:17;;;;;;;4.95;3.38;;;;;;;16.87;73.16;99865.25;6268012;22;20030;-96
2023/08/12 02:41:46;;;;;;;9.30;3.25;;;;;;;16.78;73.59;99859.66;6268082;22;19990;-96
2023/08/12 02:44:14;;;;;;;4.60;3.70;;;;;;;16.89;73.55;99896.50;6301118;22;20002;-94
2023/08/12 02:46:42;;;;;;;8.45;3.45;;;;;;;16.71;73.48;99862.78;6278853;22;20005;-95
2023/08/12 02:49:08;;;;;;;4.15;3.08;;;;;;;16.72;74.07;99860.84;6272879;22;20030;-96
2023/08/12 02:51:47;;;;;;;5.40;3.13;;;;;;;16.66;73.56;99862.03;6270013;22;20002;-96
2023/08/12 02:54:15;;;;;;;4.38;3.20;;;;;;;16.89;73.31;99898.41;6298362;22;20002;-96
2023/08/12 02:56:42;;;;;;;4.82;3.28;;;;;;;16.81;73.08;99888.19;6274213;22;20022;-96
2023/08/12 02:59:08;;;;;;;4.72;3.30;;;;;;;16.83;72.65;99891.44;6274125;22;20037;-95
2023/08/12 03:01:36;;;;;;;6.03;3.53;;;;;;;16.80;72.82;99875.69;6273299;22;19999;-96
2023/08/12 03:04:05;;;;;;;5.80;3.03;;;;;;;16.75;73.83;99880.13;6271206;22;20424;-96
2023/08/12 03:06:42;;;;;;;3.80;3.00;;;;;;;16.58;74.41;99874.41;6274367;22;20011;-96
2023/08/12 03:09:07;;;;;;;5.20;3.10;;;;;;;16.62;74.34;99885.50;6273192;22;20002;-96
2023/08/12 03:11:33;;;;;;;5.30;3.10;;;;;;;16.46;74.43;99868.63;6270490;22;20020;-96
2023/08/12 03:14:04;;;;;;;6.75;2.85;;;;;;;16.42;74.40;99873.84;6271452;22;20082;-96
2023/08/12 03:16:41;;;;;;;3.83;2.60;;;;;;;16.36;74.83;99880.44;6272584;22;20010;-95
2023/08/12 03:19:10;;;;;;;5.38;3.00;;;;;;;16.23;75.23;99862.16;6272916;22;20476;-95
2023/08/12 03:21:35;;;;;;;4.28;3.05;;;;;;;16.31;75.52;99884.06;6298743;22;20015;-96
2023/08/12 03:24:04;;;;;;;5.20;3.45;;;;;;;16.26;75.36;99883.31;6274204;22;20028;-96
2023/08/12 03:26:30;;;;;;;4.75;3.00;;;;;;;16.43;75.31;99897.19;6271333;22;20009;-96
2023/08/12 03:28:58;;;;;;;6.88;3.28;;;;;;;16.30;75.13;99873.47;6272542;22;20018;-96
2023/08/12 03:31:24;;;;;;;6.30;3.28;;;;;;;16.34;74.56;99874.50;6273187;22;19991;-96
2023/08/12 03:33:54;;;;;;;5.22;3.50;;;;;;;16.59;74.06;99902.41;6296107;22;20009;-96
2023/08/12 03:36:23;;;;;;;6.47;3.28;;;;;;;16.42;72.67;99864.88;6274986;22;20013;-95
2023/08/12 03:38:57;;;;;;;4.78;3.35;;;;;;;16.60;71.51;99882.25;6299784;22;20381;-96
2023/08/12 03:41:22;;;;;;;5.32;3.03;;;;;;;16.59;73.46;99877.94;6272565;22;20417;-96
2023/08/12 03:43:51;;;;;;;4.82;3.40;;;;;;;16.43;73.72;99863.75;6272988;22;20001;-95
2023/08/12 03:46:24;;;;;;;4.50;3.58;;;;;;;16.49;73.90;99887.06;6272317;22;20019;-95
2023/08/12 03:48:57;;;;;;;4.50;3.05;;;;;;;16.33;74.03;99884.56;6273736;22;20033;-96
2023/08/12 03:51:27;;;;;;;6.72;3.53;;;;;;;16.55;73.80;99916.56;6300784;22;20013;-96
2023/08/12 03:53:57;;;;;;;7.75;4.55;;;;;;;16.34;74.11;99907.91;6297194;22;19990;-95
2023/08/12 03:56:25;;;;;;;5.15;3.38;;;;;;;16.23;73.87;99895.59;6289648;22;20091;-94
2023/08/12 03:58:51;;;;;;;4.35;2.85;;;;;;;16.12;74.54;99889.50;6265945;22;20003;-95
2023/08/12 04:01:20;;;;;;;5.30;3.40;;;;;;;16.10;74.23;99891.69;6245579;22;20007;-96
2023/08/12 04:03:51;;;;;;;4.22;3.38;;;;;;;16.26;73.49;99910.50;6238994;22;19999;-96
2023/08/12 04:06:25;;;;;;;5.10;3.53;;;;;;;16.12;73.73;99885.94;6264906;22;20006;-95
2023/08/12 04:08:58;;;;;;;7.03;3.45;;;;;;;16.36;73.08;99919.31;6268352;22;20331;-95
2023/08/12 04:11:35;;;;;;;5.82;3.20;;;;;;;16.36;72.59;99903.00;6241360;22;20027;-96
2023/08/12 04:14:27;;;;;;;7.97;3.53;;;;;;;16.31;72.15;99897.66;6240983;22;20006;-96
2023/08/12 04:16:55;;;;;;;6.72;3.65;;;;;;;16.49;71.28;99900.63;6231934;23;20081;-95
2023/08/12 04:19:36;;;;;;;4.28;3.28;;;;;;;16.74;70.60;99927.44;6231452;22;20011;-96
2023/08/12 04:22:07;;;;;;;3.50;2.45;;;;;;;16.64;71.48;99892.25;6251801;23;20359;-96
2023/08/12 04:24:34;;;;;;;5.43;3.05;;;;;;;16.82;71.73;99934.16;6231908;23;20012;-96
2023/08/12 04:27:16;;;;;;;7.38;3.08;;;;;;;16.76;71.20;99916.25;6235219;22;20012;-96
2023/08/12 04:30:06;;;;;;;3.78;2.80;;;;;;;16.78;70.18;99895.03;6238588;22;19996;-93
2023/08/12 04:32:37;;;;;;;3.22;2.50;;;;;;;17.05;68.65;99910.66;6237818;22;19996;-96
2023/08/12 04:35:07;;;;;;;9.38;3.22;;;;;;;17.05;68.86;99909.84;6211671;22;20000;-96
2023/08/12 04:37:44;;;;;;;3.85;2.85;;;;;;;17.01;68.87;99898.75;6172636;23;20001;-96
2023/08/12 04:40:40;;;;;;;3.72;2.78;;;;;;;17.23;68.30;99913.63;6171628;23;19998;-96
2023/08/12 04:43:15;;;;;;;3.28;2.58;;;;;;;17.22;68.07;99903.84;6143524;23;20432;-96
2023/08/12 04:46:32;;;;;;;4.28;3.10;;;;;;;17.45;67.44;99932.81;6140645;23;20373;-93
2023/08/12 04:48:40;;;;;;;5.38;3.10;;;;;;;17.37;67.39;99909.81;6183288;23;20321;-94
2023/08/12 04:51:24;;;;;;;5.07;2.78;;;;;;;17.33;67.63;99906.09;6173506;23;20103;-93
2023/08/12 04:54:02;;;;;;;3.20;2.47;;;;;;;17.38;67.85;99911.41;6166217;23;20008;-87
2023/08/12 04:56:44;;;;;;;4.55;2.70;;;;;;;17.45;67.53;99915.66;6169084;23;20482;-87
2023/08/12 04:59:27;;;;;;;8.07;3.05;;;;;;;17.41;67.68;99903.75;6146684;23;20390;-87
2023/08/12 05:01:53;;;;;;;7.18;3.22;;;;;;;17.54;67.14;99913.88;6144036;23;20455;-87
2023/08/12 05:04:21;;;;;;;18.60;3.03;;;;;;;17.58;66.66;99910.25;6177236;23;20008;-86
2023/08/12 05:06:47;;;;;;;6.35;2.90;;;;;;;17.72;67.13;99923.88;6171325;23;20004;-88
2023/08/12 05:09:15;;;;;;;3.30;2.50;;;;;;;17.94;66.95;99939.50;6242110;22;20085;-87
2023/08/12 05:11:49;;;;;;;3.90;2.70;;;;;;;17.79;66.61;99915.28;6261742;22;20010;-88
2023/08/12 05:14:19;;;;;;;4.22;2.60;;;;;;;18.02;66.36;99934.47;6263358;22;20026;-88
2023/08/12 05:16:45;;;;;;;5.78;3.50;;;;;;;17.91;64.70;99920.25;6265311;22;20025;-87
2023/08/12 05:19:25;;;;;;;5.97;2.97;;;;;;;18.11;64.92;99928.00;6262657;22;19999;-88
2023/08/12 05:21:58;;;;;;;4.18;2.80;;;;;;;18.08;64.61;99914.97;6263199;22;20011;-86
2023/08/12 05:24:27;;;;;;;7.15;2.80;;;;;;;18.10;63.71;99910.03;6285801;22;20381;-87
2023/08/12 05:26:56;;;;;;;4.35;2.90;;;;;;;18.31;63.52;99926.75;6258396;22;20009;-87
2023/08/12 05:29:21;;;;;;;6.18;2.70;;;;;;;18.34;64.25;99915.25;6259578;22;20414;-87
2023/08/12 05:31:50;;;;;;;6.00;2.35;;;;;;;18.36;64.08;99928.56;6258200;22;20068;-87
2023/08/12 05:34:26;;;;;;;4.95;2.50;;;;;;;18.44;63.22;99922.38;6284593;22;19999;-86
2023/08/12 05:36:55;;;;;;;7.85;3.55;;;;;;;18.63;64.24;99929.59;6260334;22;20010;-87
2023/08/12 05:39:21;;;;;;;6.65;3.38;;;;;;;18.62;62.39;99911.63;6310174;22;20440;-86
2023/08/12 05:41:51;;;;;;;4.45;2.45;;;;;;;18.81;61.87;99925.91;6283736;22;20034;-88
2023/08/12 05:44:27;;;;;;;3.95;2.42;;;;;;;18.99;61.23;99926.84;6261388;22;19999;-88
2023/08/12 05:47:02;;;;;;;5.15;2.33;;;;;;;19.06;60.34;99926.41;6262054;22;20049;-89
2023/08/12 05:49:28;;;;;;;4.80;2.70;;;;;;;19.14;59.77;99917.47;6286141;22;20337;-85
2023/08/12 05:51:54;;;;;;;9.02;2.92;;;;;;;19.48;61.02;99946.06;6259156;22;19995;-88
2023/08/12 05:54:20;;;;;;;3.78;2.55;;;;;;;19.58;59.56;99946.59;6258002;22;20038;-86
2023/08/12 05:56:52;;;;;;;4.25;2.20;;;;;;;19.44;60.07;99910.38;6284089;22;20006;-87
2023/08/12 05:59:17;;;;;;;;;;;;;;;19.78;59.54;99942.53;6284558;22;20346;-87
2023/08/12 06:01:44;;;;;;;5.97;3.00;;;;;;;19.58;59.76;99905.63;6309970;22;19907;-87
2023/08/12 06:04:10;;;;;;;6.90;3.05;;;;;;;19.79;58.48;99916.81;6258567;22;20003;-85
2023/08/12 06:06:45;;;;;;;8.10;2.40;;;;;;;19.76;57.89;99901.06;6309379;22;19995;-87
2023/08/12 06:09:21;;;;;;;4.50;2.03;;;;;;;20.18;58.04;99933.47;6261715;22;20064;-86
2023/08/12 06:11:47;;;;;;;4.70;2.35;;;;;;;20.11;58.14;99927.69;6309736;22;20499;-87
2023/08/12 06:14:23;;;;;;;4.63;2.10;;;;;;;20.22;57.80;99911.78;6309695;22;19995;-87
2023/08/12 06:16:53;;;;;;;5.30;2.25;;;;;;;20.35;57.10;99917.09;6259841;22;19999;-87
2023/08/12 06:19:23;;;;;;;8.98;5.15;;;;;;;20.41;55.73;99933.34;6258921;22;20078;-88
2023/08/12 06:21:49;;;;;;;11.32;7.55;;;;;;;20.44;55.41;99906.19;6284561;22;20015;-88
2023/08/12 06:24:17;;;;;;;5.13;1.95;;;;;;;20.48;54.24;99917.25;6259047;22;20007;-86
2023/08/12 06:26:43;;;;;;;3.10;2.00;;;;;;;20.59;54.32;99904.91;6259016;22;20003;-87
2023/08/12 06:29:11;;;;;;;2.92;2.03;;;;;;;20.78;53.73;99912.78;6258734;22;20029;-85
2023/08/12 06:31:42;;;;;;;2.58;1.85;;;;;;;20.79;51.99;99907.00;6285294;22;19991;-88
2023/08/12 06:34:08;;;;;;;4.47;2.20;;;;;;;20.93;51.46;99911.47;6310816;22;20078;-88
2023/08/12 06:36:39;;;;;;;6.32;2.17;;;;;;;20.95;50.57;99890.84;6284760;22;20398;-88
2023/08/12 06:39:13;;;;;;;4.95;2.50;;;;;;;21.19;51.16;99905.97;6260114;22;20105;-86
2023/08/12 06:41:39;;;;;;;10.88;2.80;;;;;;;21.28;50.82;99914.94;6284518;22;20003;-89
2023/08/12 06:44:07;;;;;;;5.00;1.98;;;;;;;21.50;49.50;99921.31;6260193;22;20006;-87
2023/08/12 06:46:33;;;;;;;3.55;2.00;;;;;;;21.44;50.34;99898.81;6285177;22;20000;-87
2023/08/12 06:49:07;;;;;;;4.85;2.10;;;;;;;21.82;49.96;99924.59;6258884;22;20331;-88
2023/08/12 06:51:33;;;;;;;5.63;2.55;;;;;;;21.84;49.10;99901.19;6261978;22;19999;-86
2023/08/12 06:54:13;;;;;;;4.00;1.77;;;;;;;22.03;48.66;99911.72;6259994;22;19999;-88
2023/08/12 06:56:49;;;;;;;;;;;;;;;;;;;;;
2023/08/12 06:59:16;;;;;;;8.15;3.00;;;;;;;22.21;48.42;99901.44;6311227;22;20066;-86
2023/08/12 07:01:56;;;;;;;4.28;2.33;;;;;;;22.16;48.39;99891.47;6282620;22;20346;-88
2023/08/12 07:04:24;;;;;;;5.80;2.40;;;;;;;22.36;48.10;99887.16;6262971;22;20117;-88
2023/08/12 07:06:55;;;;;;;6.32;2.60;;;;;;;22.48;47.48;99905.63;6260734;22;20011;-88
2023/08/12 07:09:21;;;;;;;;;;;;;;;22.57;47.25;99909.09;6260697;22;20002;-86
2023/08/12 07:11:56;;;;;;;3.60;2.35;;;;;;;22.55;46.22;99883.13;6309914;22;19902;-86
2023/08/12 07:14:24;;;;;;;3.50;2.22;;;;;;;22.66;46.65;99906.28;6257979;22;20006;-87
2023/08/12 07:16:55;;;;;;;4.97;2.20;;;;;;;22.74;46.69;99901.84;6284238;22;19995;-88
2023/08/12 07:19:23;;;;;;;3.67;2.30;;;;;;;22.86;46.15;99899.16;6259722;22;20373;-87
2023/08/12 07:21:51;;;;;;;4.35;2.30;;;;;;;22.88;46.11;99887.84;6259308;22;20012;-88
2023/08/12 07:24:34;;;;;;;4.25;2.67;;;;;;;22.97;46.12;99900.34;6260445;22;20058;-91
2023/08/12 07:26:59;;;;;;;4.28;2.60;;;;;;;22.98;45.14;99876.44;6290134;22;19999;-86
2023/08/12 07:29:28;;;;;;;5.38;2.58;;;;;;;22.91;45.11;99881.66;6259555;22;20084;-86
2023/08/12 07:31:54;;;;;;;10.00;3.38;;;;;;;22.91;44.86;99865.19;6291788;22;20007;-96
2023/08/12 07:34:29;;;;;;;5.65;2.47;;;;;;;23.21;44.66;99885.09;6266472;22;20010;-96
2023/08/12 07:36:55;;;;;;;3.72;2.42;;;;;;;23.34;44.38;99897.69;6271673;22;20006;-95
2023/08/12 07:39:30;;;;;;;4.72;2.55;;;;;;;23.31;44.14;99894.84;6266319;22;19999;-95
2023/08/12 07:41:58;;;;;;;3.90;2.40;;;;;;;23.50;44.63;99878.59;6266875;22;20038;-93
2023/08/12 07:44:24;;;;;;;4.47;2.97;;;;;;;23.49;43.93;99882.50;6293594;22;19999;-96
2023/08/12 07:47:00;;;;;;;5.15;2.30;;;;;;;23.56;43.99;99896.47;6265339;22;20003;-96
2023/08/12 07:49:25;;;;;;;4.65;2.63;;;;;;;23.41;44.09;99872.41;6269480;22;19999;-95
2023/08/12 07:51:51;;;;;;;5.10;2.13;;;;;;;23.56;42.99;99870.94;6264684;22;20052;-94
2023/08/12 07:54:17;;;;;;;3.55;2.10;;;;;;;23.68;43.34;99873.69;6291464;22;20003;-94
2023/08/12 07:56:45;;;;;;;4.20;1.88;;;;;;;23.94;43.58;99895.31;6265177;22;20000;-94
2023/08/12 07:59:11;;;;;;;3.78;2.58;;;;;;;23.94;43.06;99878.81;6268037;22;19975;-94
2023/08/12 08:01:40;;;;;;;4.05;2.30;;;;;;;24.03;43.38;99880.63;6266137;22;20007;-94
2023/08/12 08:04:08;;;;;;;2.90;2.20;;;;;;;24.20;42.70;99883.94;6294696;22;19995;-96
2023/08/12 08:06:40;;;;;;;5.22;1.90;;;;;;;23.99;41.85;99862.09;6295766;22;20349;-95
2023/08/12 08:09:11;;;;;;;6.97;2.53;;;;;;;24.12;42.09;99862.88;6291653;22;20082;-96
2023/08/12 08:11:53;;;;;;;2.53;2.22;;;;;;;24.14;42.32;99859.78;6236001;22;20000;-96
2023/08/12 08:14:46;;;;;;;3.72;2.20;;;;;;;24.14;41.20;99857.81;6207832;23;20086;-96
2023/08/12 08:17:43;;;;;;;6.68;2.28;;;;;;;24.47;41.69;99887.06;6211671;23;20083;-96
2023/08/12 08:20:10;;;;;;;13.07;3.22;;;;;;;24.54;41.89;99869.97;6209614;23;20000;-94
2023/08/12 08:22:41;;;;;;;3.40;2.05;;;;;;;24.60;41.52;99852.84;6202905;23;20024;-96
2023/08/12 08:25:12;;;;;;;4.80;1.83;;;;;;;24.74;40.98;99860.72;6179772;23;20000;-96
2023/08/12 08:27:42;;;;;;;3.92;1.98;;;;;;;24.51;39.96;99862.41;6181748;23;20008;-94
2023/08/12 08:30:12;;;;;;;2.78;2.10;;;;;;;24.62;40.61;99882.00;6229945;23;20000;-95
2023/08/12 08:33:10;;;;;;;6.45;2.50;;;;;;;24.79;41.69;99878.94;6183251;23;19996;-96
2023/08/12 08:35:54;;;;;;;5.18;1.90;;;;;;;24.88;40.17;99870.50;6258164;23;20000;-94
2023/08/12 08:38:24;;;;;;;5.20;1.83;;;;;;;24.87;40.39;99866.97;6231962;23;20339;-95
2023/08/12 08:40:55;;;;;;;3.55;2.20;;;;;;;24.93;38.54;99854.53;6204905;23;20000;-93
2023/08/12 08:43:22;;;;;;;3.85;2.25;;;;;;;24.93;38.35;99845.47;6183794;23;20011;-95
2023/08/12 08:45:55;;;;;;;2.10;1.30;;;;;;;25.05;38.31;99869.38;6246954;22;20004;-96
2023/08/12 08:48:34;;;;;;;;;;;;;;;;;;;;;
2023/08/12 08:51:18;;;;;;;2.60;1.42;;;;;;;25.09;38.02;99873.84;6241693;23;20012;-96
2023/08/12 08:53:51;;;;;;;2.05;1.50;;;;;;;24.85;37.35;99851.94;6234117;23;20062;-94
2023/08/12 08:56:20;;;;;;;4.05;1.42;;;;;;;25.01;37.82;99855.53;6211041;23;19989;-96
2023/08/12 08:58:46;;;;;;;3.15;1.55;;;;;;;25.07;38.03;99848.59;6202110;23;20000;-88
2023/08/12 09:01:18;;;;;;;3.35;1.52;;;;;;;25.36;37.51;99860.38;6196829;23;20011;-89
2023/08/12 09:03:44;;;;;;;4.30;1.40;;;;;;;25.17;37.54;99842.56;6222567;23;20489;-89
2023/08/12 09:06:10;;;;;;;4.18;1.70;;;;;;;25.19;37.99;99837.50;6194889;23;20024;-87
2023/08/12 09:08:44;;;;;;;3.22;2.08;;;;;;;25.25;37.29;99859.28;6219591;23;20152;-88
2023/08/12 09:11:21;;;;;;;3.80;1.52;;;;;;;25.29;36.92;99846.41;6220746;23;20060;-87
2023/08/12 09:13:48;;;;;;;4.55;2.30;;;;;;;25.37;37.95;99854.47;6219840;23;20001;-87
2023/08/12 09:16:14;;;;;;;5.00;2.20;;;;;;;25.34;37.90;99846.94;6220161;23;20004;-87
2023/08/12 09:18:40;;;;;;;5.38;2.05;;;;;;;25.30;37.78;99820.44;6234495;22;20004;-88
2023/08/12 09:21:17;;;;;;;2.55;1.40;;;;;;;25.28;37.59;99825.53;6206634;22;20024;-93
2023/08/12 09:23:45;;;;;;;2.10;1.60;;;;;;;25.29;37.81;99830.66;6239167;22;19999;-93
2023/08/12 09:26:15;;;;;;;4.75;1.60;;;;;;;25.30;37.42;99820.44;6237898;22;20035;-92
2023/08/12 09:28:50;;;;;;;2.47;1.40;;;;;;;25.20;37.97;99803.28;6233155;22;20010;-89
2023/08/12 09:31:29;;;;;;;3.25;1.50;;;;;;;25.27;37.23;99810.13;6232765;22;20074;-87
2023/08/12 09:34:07;;;;;;;3.28;1.92;;;;;;;25.34;37.25;99852.44;6205667;22;20000;-89
2023/08/12 09:36:43;;;;;;;;;;;;;;;;;;;;;
2023/08/12 09:39:09;;;;;;;1.98;1.42;;;;;;;25.43;37.46;99805.41;6315143;22;20023;-89
2023/08/12 09:41:34;;;;;;;4.78;1.60;;;;;;;25.57;37.67;99819.53;6285863;22;20007;-88
2023/08/12 09:44:05;;;;;;;2.97;1.50;;;;;;;25.56;37.33;99819.88;6259122;22;20003;-90
2023/08/12 09:46:33;;;;;;;2.90;1.70;;;;;;;25.53;36.58;99812.31;6260762;22;20086;-89
2023/08/12 09:49:04;;;;;;;2.28;1.60;;;;;;;25.52;37.23;99807.97;6260793;22;20011;-87
2023/08/12 09:51:36;;;;;;;5.07;1.70;;;;;;;25.76;36.86;99818.75;6285766;22;20033;-87
2023/08/12 09:54:05;;;;;;;4.93;1.73;;;;;;;25.87;35.55;99807.16;6259542;22;20036;-89
2023/08/12 09:56:43;;;;;;;4.25;1.80;;;;;;;25.68;36.25;99799.66;6258801;22;20007;-96
2023/08/12 09:59:23;;;;;;;4.70;1.50;;;;;;;25.79;36.43;99800.69;6241932;22;20441;-95
2023/08/12 10:02:02;;;;;;;;;;;;;;;;;;;;;
2023/08/12 10:04:45;;;;;;;3.75;2.30;;;;;;;26.17;36.58;99796.41;6272865;22;20523;-96
2023/08/12 10:07:50;;;;;;;5.32;2.00;;;;;;;26.27;36.30;99817.09;6245382;22;20007;-95
2023/08/12 10:10:23;;;;;;;4.57;1.58;;;;;;;26.23;36.86;99803.22;6179394;23;20000;-93
2023/08/12 10:12:53;;;;;;;3.58;1.83;;;;;;;26.38;36.71;99796.03;6175107;23;20016;-95
2023/08/12 10:15:24;;;;;;;4.20;1.92;;;;;;;26.36;37.05;99777.06;6175738;23;20004;-96
2023/08/12 10:17:58;;;;;;;2.20;1.60;;;;;;;26.43;37.16;99768.09;6178595;23;20074;-95
2023/08/12 10:20:29;;;;;;;4.22;1.70;;;;;;;26.49;35.72;99761.13;6177074;23;20005;-93
2023/08/12 10:26:20;;;;;;;3.33;1.80;;;;;;;26.62;36.26;99778.34;6204775;23;20013;-95
2023/08/12 10:29:37;;;;;;;;;;;;;;;;;;;;;
2023/08/12 10:32:51;;;;;;;;;;;;;;;;;;;;;
2023/08/12 10:38:48;;;;;;;3.95;1.83;;;;;;;26.27;35.81;99759.91;6144476;23;20037;-94
2023/08/12 10:42:13;;;;;;;;;;;;;;;;;;;;;
2023/08/12 10:44:54;;;;;;;2.83;1.88;;;;;;;26.64;35.73;99770.47;6120879;23;20003;-95
2023/08/12 10:47:34;;;;;;;4.63;2.28;;;;;;;26.36;36.50;99740.38;6135465;23;20006;-94
2023/08/12 10:50:04;;;;;;;4.72;2.00;;;;;;;26.56;35.94;99747.44;6137735;23;20029;-95
2023/08/12 10:52:39;;;;;;;2.92;2.17;;;;;;;26.78;36.32;99750.59;6138963;23;19994;-96
2023/08/12 10:55:32;;;;;;;4.47;1.80;;;;;;;26.86;36.47;99746.00;6161390;23;20004;-95
2023/08/12 10:58:14;;;;;;;;;;;;;;;;;;;;;
2023/08/12 11:00:59;;;;;;;4.68;2.40;;;;;;;27.16;36.10;99762.66;6173550;23;20021;-96
2023/08/12 11:10:20;;;;;;;2.03;1.40;;;;;;;27.17;35.82;99744.91;6271580;22;20067;-96
2023/08/12 11:13:51;;;;;;;2.83;1.85;;;;;;;26.97;35.59;99719.34;6354074;22;20001;-96
2023/08/12 11:16:44;;;;;;;2.20;1.60;;;;;;;27.33;35.47;99748.38;6179444;23;20083;-96
2023/08/12 11:19:38;;;;;;;;;;;;;;;;;;;;;
2023/08/12 11:23:05;;;;;;;;;;;;;;;;;;;;;
2023/08/12 11:25:59;;;;;;;2.97;2.03;;;;;;;27.13;35.39;99713.66;6317372;22;20030;-87
2023/08/12 11:28:25;;;;;;;5.05;2.22;;;;;;;27.14;36.16;99716.03;6282023;22;20015;-86
2023/08/12 11:30:50;;;;;;;2.30;1.70;;;;;;;27.04;35.70;99711.16;6256933;22;20036;-87
2023/08/12 11:33:53;;;;;;;2.70;1.90;;;;;;;27.19;35.52;99726.78;6282402;22;20014;-87
2023/08/12 11:36:31;;;;;;;3.58;1.90;;;;;;;27.22;35.64;99722.47;6284943;22;19999;-87
2023/08/12 11:38:59;;;;;;;3.17;1.77;;;;;;;27.17;35.17;99712.53;6286127;22;20350;-89
2023/08/12 11:41:45;;;;;;;4.68;1.67;;;;;;;27.33;34.56;99729.00;6258633;22;20003;-92
2023/08/12 11:44:20;;;;;;;2.97;1.90;;;;;;;27.15;34.53;99695.53;6284927;22;20006;-90
2023/08/12 11:46:51;;;;;;;3.03;2.00;;;;;;;27.19;34.91;99699.13;6259607;22;20000;-91
2023/08/12 11:49:23;;;;;;;3.35;1.75;;;;;;;27.37;34.36;99701.38;6286590;22;20000;-90
2023/08/12 11:52:06;;;;;;;3.65;1.90;;;;;;;27.42;34.92;99692.78;6285779;22;20014;-92
2023/08/12 11:55:03;;;;;;;2.83;1.70;;;;;;;27.45;34.69;99675.41;6295411;22;19999;-94
2023/08/12 11:57:29;;;;;;;3.28;2.30;;;;;;;27.69;34.81;99692.72;6322002;22;20027;-95
2023/08/12 12:00:30;;;;;;;5.50;2.00;;;;;;;27.67;34.51;99672.94;6267128;22;20003;-95
2023/08/12 12:02:56;;;;;;;3.08;1.90;;;;;;;27.78;33.96;99688.47;6253847;22;20015;-94
2023/08/12 12:05:34;;;;;;;3.47;2.20;;;;;;;27.89;32.37;99683.13;6285450;22;20003;-91
2023/08/12 12:08:00;;;;;;;3.15;1.80;;;;;;;27.99;32.36;99707.34;6264152;22;20003;-93
2023/08/12 12:10:41;;;;;;;2.15;1.52;;;;;;;27.73;32.54;99690.81;6259795;22;20000;-92
2023/08/12 12:13:19;;;;;;;3.72;1.42;;;;;;;27.58;32.80;99684.25;6287139;22;19999;-93
2023/08/12 12:15:47;;;;;;;2.65;1.70;;;;;;;27.59;32.84;99689.44;6262217;22;20000;-92
2023/08/12 12:18:39;;;;;;;2.17;1.38;;;;;;;27.49;33.01;99659.66;6269260;22;20018;-96
2023/08/12 12:21:16;;;;;;;3.47;2.15;;;;;;;27.69;34.21;99667.81;6274223;22;19999;-96
2023/08/12 12:26:20;;;;;;;3.33;1.73;;;;;;;28.02;34.08;99687.22;6299554;22;20025;-94
2023/08/12 12:29:15;;;;;;;7.78;5.18;;;;;;;28.20;33.93;99684.63;6241888;22;20011;-95